Terminal Aerodrome Forecast
Issued by NWS

Home | Current Version | Previous Version | Text Only | Print | Product List | Glossary On
Versions: 1 2 3 4 5 6 7 8 9 10 11 12 13 14 15 16 17 18 19 20 21 22 23 24 25 26 27 28 29 30 31 32 33 34 35 36 37 38 39 40 41 42 43 44 45 46 47 48 49 50
000
FTUS43 KMKX 171743
TAFENW
TAF
KENW 171743Z 1718/1818 17014G22KT P6SM OVC050
     FM172000 17014G24KT P6SM VCSH OVC040
     FM172200 17013G21KT 6SM -RA OVC025
     FM180600 25005KT P6SM VCSH OVC003
     FM181200 36009KT 3SM RA OVC003
     FM181400 35013G21KT 2SM RA OVC008
     FM181600 35016G28KT 3SM RA OVC008=

USA.gov is the U.S. government's official web portal to all federal, state and local government web resources and services.